Leshara, NE

2:20 PM CST on March 05, 2015 (GMT -0600)
Elkhorn High School | Change Station
CLOSE
Current Station
Personal Weather Station
Location: Nebraska, NE
Elevation: 1270 ft
Nearby Weather Stations

Elev 1270 ft 41.27 °N, 96.23 °W | Updated 12 minutes ago

Clear
Clear
28.5 °F
Feels Like 28 °F
N
2.0
Wind Variable Wind from South
Gusts 13.0 mph

Today
High -- | Low -- °F
--% Chance of Precip.
Yesterday
High -- | Low -- °F
Precip. -- in
6:53 AM 6:20 PM
Full, 100% visible
Pressure 30.42 in
Visibility 10.0 miles
Clouds Clear
Windchill 28 °F
Dew Point 6 °F
Humidity 39%
Rainfall in
Snow Depth Not available.
UV 5 out of 12
Pollen 1.20 out of 12
Air Quality Not available.
Flu Activity Not available.
METAR KFET 052015Z AUTO 19008G16KT 10SM CLR M01/M16 A3042 RMK AO2 T10061163

More Conditions Fewer Conditions

Pressure 30.42 in
Visibility 10.0 miles
Clouds Clear
Windchill 28 °F
Dew Point 6 °F
Humidity 39%
Rainfall in
Snow Depth Not available.
UV 5 out of 12
Pollen 1.20 out of 12
Air Quality Not available.
Flu Activity Not available.
METAR KFET 052015Z AUTO 19008G16KT 10SM CLR M01/M16 A3042 RMK AO2 T10061163

More Conditions Fewer Conditions

10-Day Weather Forecast

Almanac

Astronomy

Mar. 05, 2015 Rise Set
Actual Time
Civil Twilight
Nautical Twilight
Astronomical Twilight
Moon
Length of Visible Light
Length of Day
Tomorrow will be .
, % of the Moon is Illuminated

Today's Extremes

State Highs State Lows

Community

WunderPhotos

Upload Photos

1,802,943 photos uploaded!

WunderBlogs® & News

Nearby

Air Quality

  Air Quality AQ Index Pollutant
Not available.

Snow Depth

Station Depth Elevation

Earthquake Activity

City Distance Mag. Time & Date
Minimum magnitude displayed is 2.5.

Coastal Water Temperatures

Place Temperature

Nearby Weather Stations